Bay City, Wisconsin
Current Conditions -  °F | °C
As of 10:34 AM on Monday 24 Nov 2014 (Local Time) from KSYN Reporting Station
Overcast Overcast  
Wind Chill:   Ceiling: 1500
Heat Index: 23°   Visibility: 10mi
Dew Point: 18°   Wind: 22mph
Humidity: 80%   Direction: 300°WNW
Pressure: 29.43"   Gusts: 28mph
Location:  44.59°N, 92.45°W
Report Text: KSYN 241634Z AUTO 30019G24KT 10SM OVC015 M05/M08 A2943 RMK AO2 T10481078
Loading
Personal Weather Stations






























Interactive Weather Map New forecast layout! Learn more

10-Day Weather Forecast

Advertisements
Track Severe Weather on mobile